KEKO/EKO METAR and TAF weather

Enter ICAO airport designator
Station Type Date Time Source
KEKO METAR 2022/01/26 18:56 UTC NOAA

KEKO 261856Z AUTO 00000KT 10SM CLR M01/M09 A3029 RMK AO2 SLP290 T10111094


Station Type Date Time Source
KEKO Decoded METAR 2022/01/26 18:56 UTC NOAA

ELKO REGIONAL AIRPORT, NV, United States (KEKO) 40-50N 115-47W 1547M
Jan 26, 2022 - 01:56 PM EST / 2022.01.26 1856 UTC
Wind: Calm:0
Visibility: 10 mile(s):0
Sky conditions: clear
Temperature: 30.0 F (-1.1 C)
Dew Point: 15.1 F (-9.4 C)
Relative Humidity: 53%
Pressure (altimeter): 30.29 in. Hg (1025 hPa)
ob: KEKO 261856Z AUTO 00000KT 10SM CLR M01/M09 A3029 RMK AO2 SLP290 T10111094
cycle: 19

Station Type Date Time Source
KEKO TAF 2022/01/26 18:22 UTC NOAA

TAF KEKO 261720Z 2618/2718 VRB05KT P6SM SCT120 BKN180
FM270300 07005KT P6SM SKC

Example: see airport list